createdAt,value
2023-02-20T00:01:19.856Z,10.17
2023-02-20T00:04:04.863Z,10.60
2023-02-20T00:06:49.788Z,9.00
2023-02-20T00:09:34.912Z,10.00
2023-02-20T00:12:20.033Z,9.73
2023-02-20T00:15:06.192Z,8.30
2023-02-20T00:17:51.285Z,11.43
2023-02-20T00:20:37.415Z,12.00
2023-02-20T00:23:22.521Z,10.57
2023-02-20T00:26:11.904Z,8.68
2023-02-20T00:28:56.826Z,9.90
2023-02-20T00:31:41.844Z,11.38
2023-02-20T00:34:28.575Z,11.38
2023-02-20T00:37:13.732Z,9.18
2023-02-20T00:39:58.931Z,9.40
2023-02-20T00:42:44.228Z,12.40
2023-02-20T00:45:29.406Z,11.57
2023-02-20T00:48:14.273Z,10.68
2023-02-20T00:50:59.493Z,10.40
2023-02-20T00:53:44.406Z,13.93
2023-02-20T00:56:29.791Z,11.37
2023-02-20T00:59:15.007Z,11.80
2023-02-20T01:01:59.914Z,12.40
2023-02-20T01:04:45.085Z,12.82
2023-02-20T01:07:29.917Z,10.48
2023-02-20T01:10:15.330Z,11.37
2023-02-20T01:13:00.485Z,10.35
2023-02-20T01:15:45.637Z,11.43
2023-02-20T01:18:30.492Z,10.88
2023-02-20T01:21:15.121Z,10.55
2023-02-20T01:24:00.314Z,11.53
2023-02-20T01:26:46.985Z,10.35
2023-02-20T01:29:31.919Z,10.55
2023-02-20T01:32:16.823Z,12.32
2023-02-20T01:35:01.977Z,11.23
2023-02-20T01:37:47.109Z,12.43
2023-02-20T01:40:33.250Z,8.73
2023-02-20T01:43:18.189Z,10.25
2023-02-20T01:46:27.826Z,12.15
2023-02-20T01:49:17.448Z,9.15
2023-02-20T01:52:20.140Z,8.87
2023-02-20T01:55:10.769Z,11.52
2023-02-20T01:58:08.809Z,9.02
2023-02-20T02:00:55.904Z,9.25
2023-02-20T02:03:45.253Z,9.27
2023-02-20T02:06:34.068Z,7.00
2023-02-20T02:09:23.685Z,9.20
2023-02-20T02:12:09.352Z,8.35
2023-02-20T02:14:54.395Z,6.00
2023-02-20T02:17:54.148Z,7.95
2023-02-20T02:20:54.723Z,5.57
2023-02-20T02:23:58.265Z,7.85
2023-02-20T02:27:01.770Z,6.75
2023-02-20T02:30:09.917Z,9.43
2023-02-20T02:33:03.782Z,4.55
2023-02-20T02:36:03.809Z,5.93
2023-02-20T02:39:08.150Z,5.55
2023-02-20T02:42:05.837Z,5.72
2023-02-20T02:45:01.605Z,6.15
2023-02-20T02:48:03.749Z,6.45
2023-02-20T02:50:52.961Z,7.53
2023-02-20T02:53:38.026Z,5.18
2023-02-20T02:56:36.544Z,4.88
2023-02-20T02:59:32.333Z,8.75
2023-02-20T03:02:19.996Z,7.00
2023-02-20T03:05:08.441Z,6.50
2023-02-20T03:07:58.051Z,6.22
2023-02-20T03:10:44.096Z,7.38
2023-02-20T03:13:51.492Z,8.55
2023-02-20T03:16:50.919Z,7.30
2023-02-20T03:19:40.926Z,6.47
2023-02-20T03:22:30.859Z,5.70
2023-02-20T03:25:25.260Z,6.72
2023-02-20T03:28:22.350Z,8.00
2023-02-20T03:31:14.016Z,6.57
2023-02-20T03:34:24.998Z,9.77
2023-02-20T03:37:37.078Z,7.18
2023-02-20T03:40:42.499Z,6.60
2023-02-20T03:43:29.955Z,5.40
2023-02-20T03:46:22.746Z,5.35
2023-02-20T03:49:31.918Z,6.70
2023-02-20T03:52:18.117Z,6.28
2023-02-20T03:55:04.270Z,6.25
2023-02-20T03:57:53.694Z,7.85
2023-02-20T04:00:43.546Z,8.25
2023-02-20T04:03:33.152Z,5.30
2023-02-20T04:06:21.504Z,8.07
2023-02-20T04:09:14.298Z,6.78
2023-02-20T04:12:27.139Z,7.95
2023-02-20T04:15:13.129Z,6.40
2023-02-20T04:18:03.351Z,7.60
2023-02-20T04:20:53.954Z,9.35
2023-02-20T04:23:43.397Z,7.78
2023-02-20T04:26:28.235Z,6.38
2023-02-20T04:29:13.219Z,6.57
2023-02-20T04:31:58.669Z,7.63
2023-02-20T04:34:43.823Z,6.55
2023-02-20T04:37:29.220Z,7.72
2023-02-20T04:40:16.510Z,5.85
2023-02-20T04:43:01.979Z,5.18
2023-02-20T04:45:47.323Z,5.07
2023-02-20T04:48:32.388Z,6.93
2023-02-20T04:51:17.358Z,6.35
2023-02-20T04:54:02.265Z,5.55
2023-02-20T04:56:47.396Z,6.22
2023-02-20T04:59:32.422Z,5.73
2023-02-20T05:02:17.388Z,5.40
2023-02-20T05:05:02.135Z,6.65
2023-02-20T05:07:47.432Z,7.13
2023-02-20T05:10:34.625Z,8.25
2023-02-20T05:13:19.643Z,12.10
2023-02-20T05:16:04.737Z,8.77
2023-02-20T05:18:49.613Z,7.75
2023-02-20T05:21:54.043Z,9.18
2023-02-20T05:24:39.100Z,8.60
2023-02-20T05:27:24.695Z,10.60
2023-02-20T05:30:10.851Z,8.32
2023-02-20T05:32:55.959Z,10.57
2023-02-20T05:35:41.684Z,11.02
2023-02-20T05:38:26.737Z,8.90
2023-02-20T05:41:11.766Z,7.20
2023-02-20T05:43:58.274Z,9.52
2023-02-20T05:46:44.467Z,8.32
2023-02-20T05:49:30.012Z,8.80
2023-02-20T05:52:14.918Z,9.45
2023-02-20T05:55:00.016Z,10.20
2023-02-20T05:57:44.702Z,7.47
2023-02-20T06:00:29.917Z,9.20
2023-02-20T06:03:15.771Z,9.93
2023-02-20T06:06:00.968Z,13.43
2023-02-20T06:08:46.066Z,9.03
2023-02-20T06:11:30.908Z,8.82
2023-02-20T06:14:15.728Z,7.78
2023-02-20T06:17:00.542Z,8.75
2023-02-20T06:19:45.307Z,10.95
2023-02-20T06:22:30.455Z,7.30
2023-02-20T06:25:15.744Z,12.57
2023-02-20T06:28:00.581Z,7.60
2023-02-20T06:30:45.518Z,10.18
2023-02-20T06:33:30.566Z,10.55
2023-02-20T06:36:28.153Z,8.10
2023-02-20T06:39:14.152Z,9.98
2023-02-20T06:41:59.138Z,8.35
2023-02-20T06:44:43.907Z,9.95
2023-02-20T06:47:29.144Z,10.02
2023-02-20T06:50:13.952Z,9.50
2023-02-20T06:52:59.282Z,10.68
2023-02-20T06:55:44.558Z,11.35
2023-02-20T06:58:29.693Z,8.10
2023-02-20T07:01:16.179Z,9.48
2023-02-20T07:04:03.047Z,6.93
2023-02-20T07:06:48.065Z,9.90
2023-02-20T07:09:32.899Z,8.73
2023-02-20T07:12:17.882Z,9.20
2023-02-20T07:15:04.166Z,8.70
2023-02-20T07:17:49.071Z,9.93
2023-02-20T07:20:33.983Z,12.35
2023-02-20T07:23:19.402Z,10.70
2023-02-20T07:26:04.509Z,12.55
2023-02-20T07:28:49.665Z,13.18
2023-02-20T07:31:34.629Z,11.30
2023-02-20T07:34:19.633Z,14.15
2023-02-20T07:37:04.487Z,10.35
2023-02-20T07:39:49.606Z,12.50
2023-02-20T07:42:34.569Z,11.88
2023-02-20T07:45:19.923Z,12.47
2023-02-20T07:48:05.342Z,12.13
2023-02-20T07:50:50.548Z,10.93
2023-02-20T07:53:35.350Z,10.43
2023-02-20T07:56:21.801Z,13.02
2023-02-20T07:59:07.132Z,11.63
2023-02-20T08:01:52.222Z,10.40
2023-02-20T08:04:37.104Z,6.40
2023-02-20T08:07:22.133Z,8.57
2023-02-20T08:10:07.022Z,8.38
2023-02-20T08:12:53.765Z,10.10
2023-02-20T08:15:38.683Z,6.50
2023-02-20T08:18:24.430Z,6.03
2023-02-20T08:21:09.231Z,7.53
2023-02-20T08:23:54.968Z,9.00
2023-02-20T08:26:44.882Z,8.93
2023-02-20T08:29:29.890Z,9.93
2023-02-20T08:32:15.457Z,9.63
2023-02-20T08:35:00.529Z,5.68
2023-02-20T08:37:45.573Z,9.27
2023-02-20T08:40:30.402Z,7.47
2023-02-20T08:43:15.326Z,5.95
2023-02-20T08:46:01.214Z,6.82
2023-02-20T08:48:46.439Z,7.70
2023-02-20T08:51:31.580Z,6.65
2023-02-20T08:54:16.543Z,10.13
2023-02-20T08:57:01.601Z,9.55
2023-02-20T08:59:46.456Z,7.55
2023-02-20T09:02:31.595Z,8.55
2023-02-20T09:05:17.285Z,6.95
2023-02-20T09:08:03.011Z,6.03
2023-02-20T09:10:47.954Z,9.25
2023-02-20T09:13:33.139Z,8.93
2023-02-20T09:16:23.300Z,7.53
2023-02-20T09:19:09.618Z,8.80
2023-02-20T09:21:54.430Z,8.50
2023-02-20T09:24:39.224Z,6.50
2023-02-20T09:27:24.305Z,8.35
2023-02-20T09:30:12.225Z,9.15
2023-02-20T09:32:57.202Z,9.10
2023-02-20T09:35:41.990Z,7.13
2023-02-20T09:38:29.298Z,11.32
2023-02-20T09:41:46.276Z,9.60
2023-02-20T09:44:55.105Z,11.50
2023-02-20T09:48:08.780Z,9.02
2023-02-20T09:51:00.919Z,9.13
2023-02-20T09:54:07.777Z,8.90
2023-02-20T09:57:01.418Z,8.40
2023-02-20T09:59:54.851Z,7.15
2023-02-20T10:02:54.434Z,8.23
2023-02-20T10:05:41.960Z,8.83
2023-02-20T10:08:27.021Z,7.22
2023-02-20T10:11:24.859Z,8.95
2023-02-20T10:14:28.977Z,6.15
2023-02-20T10:17:22.919Z,6.63
2023-02-20T10:20:10.861Z,10.33
2023-02-20T10:23:09.401Z,7.30
2023-02-20T10:25:58.398Z,7.57
2023-02-20T10:28:43.779Z,5.30
2023-02-20T10:31:48.057Z,7.80
2023-02-20T10:34:53.690Z,7.87
2023-02-20T10:37:48.438Z,9.32
2023-02-20T10:40:40.545Z,8.43
2023-02-20T10:43:35.066Z,8.90
2023-02-20T10:46:47.826Z,9.38
2023-02-20T10:49:44.308Z,9.57
2023-02-20T10:52:36.480Z,7.78
2023-02-20T10:55:29.857Z,9.98
2023-02-20T10:58:25.892Z,8.60
2023-02-20T11:01:15.068Z,7.60
2023-02-20T11:04:10.581Z,6.47
2023-02-20T11:07:02.868Z,9.50
2023-02-20T11:09:48.078Z,9.85
2023-02-20T11:12:40.188Z,8.15
2023-02-20T11:15:30.554Z,11.68
2023-02-20T11:18:31.751Z,10.13
2023-02-20T11:21:40.350Z,8.57
2023-02-20T11:24:34.458Z,8.93
2023-02-20T11:27:25.159Z,13.35
2023-02-20T11:30:22.012Z,10.77
2023-02-20T11:33:19.716Z,11.37
2023-02-20T11:36:20.306Z,9.00
2023-02-20T11:39:24.483Z,11.48
2023-02-20T11:42:16.808Z,9.05
2023-02-20T11:45:16.058Z,9.80
2023-02-20T11:48:19.954Z,12.47
2023-02-20T11:51:05.333Z,10.23
2023-02-20T11:54:06.880Z,10.88
2023-02-20T11:56:55.365Z,10.07
2023-02-20T11:59:42.321Z,10.05
2023-02-20T12:02:28.441Z,11.63
2023-02-20T12:05:15.645Z,12.82
2023-02-20T12:08:00.818Z,5.75
2023-02-20T12:10:48.367Z,10.55
2023-02-20T12:13:42.205Z,11.63
2023-02-20T12:16:34.146Z,11.60
2023-02-20T12:19:34.406Z,9.23
2023-02-20T12:22:39.480Z,14.18
2023-02-20T12:25:33.248Z,10.07
2023-02-20T12:28:45.546Z,9.88
2023-02-20T12:31:47.032Z,11.43
2023-02-20T12:34:49.575Z,13.18
2023-02-20T12:38:12.647Z,11.48
2023-02-20T12:41:29.782Z,11.30
2023-02-20T12:44:29.931Z,11.60
2023-02-20T12:47:38.340Z,7.53
2023-02-20T12:51:02.563Z,13.38
2023-02-20T12:54:07.621Z,15.90
2023-02-20T12:57:03.385Z,11.52
2023-02-20T12:59:57.958Z,12.75
2023-02-20T13:02:49.600Z,12.10
2023-02-20T13:05:37.235Z,12.32
2023-02-20T13:08:31.709Z,14.48
2023-02-20T13:11:21.486Z,10.25
2023-02-20T13:14:15.882Z,13.40
2023-02-20T13:17:26.809Z,11.97
2023-02-20T13:20:23.673Z,11.88
2023-02-20T13:23:17.822Z,11.15
2023-02-20T13:26:23.483Z,14.32
2023-02-20T13:29:17.777Z,14.18
2023-02-20T13:32:22.792Z,12.67
2023-02-20T13:35:41.889Z,10.80
2023-02-20T13:38:28.057Z,10.90
2023-02-20T13:41:13.818Z,14.40
2023-02-20T13:44:36.619Z,14.98
2023-02-20T13:47:31.445Z,12.97
2023-02-20T13:50:31.022Z,13.98
2023-02-20T13:53:16.198Z,10.30
2023-02-20T13:56:01.230Z,10.45
2023-02-20T13:58:47.054Z,11.07
2023-02-20T14:02:10.868Z,14.43
2023-02-20T14:05:03.813Z,13.25
2023-02-20T14:07:48.913Z,13.00
2023-02-20T14:10:36.808Z,19.38
2023-02-20T14:13:39.131Z,11.10
2023-02-20T14:16:35.538Z,13.67
2023-02-20T14:19:29.680Z,15.95
2023-02-20T14:22:20.837Z,15.35
2023-02-20T14:25:11.906Z,17.13
2023-02-20T14:28:27.285Z,15.88
2023-02-20T14:31:27.253Z,16.73
2023-02-20T14:34:47.930Z,15.10
2023-02-20T14:38:07.429Z,17.17
2023-02-20T14:40:52.376Z,12.43
2023-02-20T14:43:37.661Z,13.55
2023-02-20T14:46:29.766Z,13.33
2023-02-20T14:49:24.335Z,14.35
2023-02-20T14:52:10.442Z,17.02
2023-02-20T14:55:01.177Z,12.18
2023-02-20T14:57:49.214Z,13.82
2023-02-20T15:00:37.287Z,10.60
2023-02-20T15:03:30.658Z,14.18
2023-02-20T15:06:16.212Z,12.77
2023-02-20T15:09:12.736Z,12.55
2023-02-20T15:12:09.030Z,10.15
2023-02-20T15:15:00.395Z,16.47
2023-02-20T15:17:45.171Z,11.18
2023-02-20T15:20:33.416Z,10.38
2023-02-20T15:23:29.717Z,15.15
2023-02-20T15:26:31.932Z,13.18
2023-02-20T15:29:23.870Z,10.37
2023-02-20T15:32:23.833Z,12.32
2023-02-20T15:35:18.711Z,13.10
2023-02-20T15:38:07.628Z,11.90
2023-02-20T15:40:56.111Z,14.95
2023-02-20T15:43:50.848Z,20.33
2023-02-20T15:46:37.180Z,15.55
2023-02-20T15:49:22.238Z,18.23
2023-02-20T15:52:13.721Z,13.52
2023-02-20T15:55:01.611Z,16.98
2023-02-20T15:57:50.744Z,12.33
2023-02-20T16:00:35.545Z,11.93
2023-02-20T16:03:21.804Z,14.30
2023-02-20T16:06:07.115Z,15.75
2023-02-20T16:08:52.980Z,14.10
2023-02-20T16:11:41.467Z,14.63
2023-02-20T16:14:26.441Z,19.63
2023-02-20T16:17:22.314Z,16.70
2023-02-20T16:20:19.177Z,18.52
2023-02-20T16:23:05.282Z,18.83
2023-02-20T16:25:50.900Z,20.13
2023-02-20T16:28:35.873Z,17.45
2023-02-20T16:31:21.181Z,19.27
2023-02-20T16:34:21.237Z,17.48
2023-02-20T16:37:10.306Z,17.65
2023-02-20T16:39:55.633Z,18.23
2023-02-20T16:42:41.338Z,17.50
2023-02-20T16:45:26.525Z,14.35
2023-02-20T16:48:19.182Z,13.70
2023-02-20T16:51:06.344Z,14.32
2023-02-20T16:53:51.343Z,17.63
2023-02-20T16:56:35.998Z,14.98
2023-02-20T16:59:22.482Z,19.02
2023-02-20T17:02:07.882Z,15.98
2023-02-20T17:04:53.641Z,14.75
2023-02-20T17:07:38.577Z,16.80
2023-02-20T17:10:23.788Z,15.27
2023-02-20T17:13:08.756Z,12.40
2023-02-20T17:15:53.955Z,13.15
2023-02-20T17:18:39.325Z,12.75
2023-02-20T17:21:24.082Z,10.90
2023-02-20T17:24:08.922Z,11.77
2023-02-20T17:26:54.251Z,10.93
2023-02-20T17:29:41.942Z,9.95
2023-02-20T17:32:28.171Z,12.50
2023-02-20T17:35:14.505Z,11.77
2023-02-20T17:37:59.516Z,13.32
2023-02-20T17:40:44.412Z,14.70
2023-02-20T17:43:29.481Z,15.10
2023-02-20T17:46:17.351Z,10.60
2023-02-20T17:49:03.265Z,9.77
2023-02-20T17:51:51.507Z,9.50
2023-02-20T17:54:36.821Z,13.93
2023-02-20T17:57:22.475Z,12.95
2023-02-20T18:00:08.132Z,10.57
2023-02-20T18:02:53.449Z,14.13
2023-02-20T18:05:38.196Z,9.05
2023-02-20T18:08:23.463Z,12.38
2023-02-20T18:11:08.274Z,9.73
2023-02-20T18:13:54.608Z,10.23
2023-02-20T18:16:39.632Z,11.77
2023-02-20T18:19:24.845Z,11.13
2023-02-20T18:22:09.866Z,9.40
2023-02-20T18:24:54.934Z,10.15
2023-02-20T18:27:39.791Z,9.48
2023-02-20T18:30:24.945Z,10.37
2023-02-20T18:33:09.686Z,10.10
2023-02-20T18:36:07.083Z,11.35
2023-02-20T18:38:52.699Z,10.52
2023-02-20T18:41:37.746Z,10.38
2023-02-20T18:44:23.910Z,11.30
2023-02-20T18:47:10.274Z,13.68
2023-02-20T18:49:55.405Z,10.50
2023-02-20T18:52:40.209Z,11.90
2023-02-20T18:55:25.426Z,12.65
2023-02-20T18:58:10.386Z,12.70
2023-02-20T19:00:55.669Z,22.05
2023-02-20T19:03:40.360Z,10.98
2023-02-20T19:06:27.999Z,16.42
2023-02-20T19:09:15.845Z,13.05
2023-02-20T19:12:01.181Z,15.37
2023-02-20T19:14:46.278Z,14.93
2023-02-20T19:17:31.965Z,15.75
2023-02-20T19:20:29.373Z,15.20
2023-02-20T19:23:14.252Z,11.07
2023-02-20T19:25:59.328Z,11.53
2023-02-20T19:28:44.225Z,15.70
2023-02-20T19:31:29.405Z,16.25
2023-02-20T19:34:14.972Z,15.40
2023-02-20T19:36:59.962Z,15.82
2023-02-20T19:39:45.224Z,18.47
2023-02-20T19:42:30.138Z,17.50
2023-02-20T19:45:14.955Z,16.60
2023-02-20T19:48:00.049Z,18.10
2023-02-20T19:50:44.918Z,17.55
2023-02-20T19:53:30.161Z,14.70
2023-02-20T19:56:15.661Z,15.15
2023-02-20T19:59:00.776Z,15.20
2023-02-20T20:01:54.044Z,20.85
2023-02-20T20:04:39.636Z,16.92
2023-02-20T20:07:24.503Z,19.93
2023-02-20T20:10:11.066Z,16.05
2023-02-20T20:12:55.881Z,17.13
2023-02-20T20:15:41.042Z,18.23
2023-02-20T20:18:26.181Z,18.17
2023-02-20T20:21:11.317Z,11.73
2023-02-20T20:23:56.907Z,16.10
2023-02-20T20:26:41.765Z,18.02
2023-02-20T20:29:26.882Z,18.33
2023-02-20T20:32:11.757Z,20.98
2023-02-20T20:34:57.085Z,17.93
2023-02-20T20:37:41.854Z,19.30
2023-02-20T20:40:28.482Z,11.85
2023-02-20T20:43:15.274Z,12.95
2023-02-20T20:46:01.159Z,15.68
2023-02-20T20:48:46.530Z,15.13
2023-02-20T20:51:31.286Z,18.77
2023-02-20T20:54:16.222Z,16.42
2023-02-20T20:57:01.201Z,23.40
2023-02-20T20:59:47.091Z,18.70
2023-02-20T21:02:32.071Z,10.80
2023-02-20T21:05:19.078Z,9.23
2023-02-20T21:08:05.869Z,9.00
2023-02-20T21:10:50.659Z,10.05
2023-02-20T21:13:35.852Z,20.23
2023-02-20T21:16:20.876Z,16.27
2023-02-20T21:19:06.236Z,19.10
2023-02-20T21:21:52.561Z,21.40
2023-02-20T21:24:37.781Z,11.35
2023-02-20T21:27:22.872Z,17.98
2023-02-20T21:30:09.141Z,20.63
2023-02-20T21:32:54.327Z,17.02
2023-02-20T21:35:39.674Z,13.77
2023-02-20T21:38:24.740Z,15.02
2023-02-20T21:41:09.680Z,12.00
2023-02-20T21:44:13.462Z,18.75
2023-02-20T21:47:01.227Z,11.30
2023-02-20T21:49:47.817Z,19.48
2023-02-20T21:52:36.402Z,11.32
2023-02-20T21:55:21.555Z,19.20
2023-02-20T21:58:06.456Z,18.45
2023-02-20T22:00:51.287Z,18.40
2023-02-20T22:03:36.440Z,14.20
2023-02-20T22:06:21.374Z,17.25
2023-02-20T22:09:26.346Z,15.57
2023-02-20T22:12:30.322Z,17.35
2023-02-20T22:15:34.110Z,12.77
2023-02-20T22:18:37.816Z,21.67
2023-02-20T22:21:43.534Z,20.05
2023-02-20T22:24:47.391Z,12.02
2023-02-20T22:27:51.265Z,5.45
2023-02-20T22:30:55.197Z,18.03
2023-02-20T22:33:59.166Z,22.25
2023-02-20T22:37:05.962Z,18.65
2023-02-20T22:40:09.702Z,18.92
2023-02-20T22:43:14.333Z,15.88
2023-02-20T22:46:18.065Z,21.00
2023-02-20T22:49:22.032Z,20.05
2023-02-20T22:52:25.819Z,9.85
2023-02-20T22:55:31.243Z,14.20
2023-02-20T22:58:35.015Z,21.40
2023-02-20T23:01:38.852Z,24.53
2023-02-20T23:04:42.813Z,17.80
2023-02-20T23:07:47.667Z,16.88
2023-02-20T23:10:51.582Z,21.15
2023-02-20T23:13:55.470Z,24.90
2023-02-20T23:16:59.234Z,25.87
2023-02-20T23:20:03.316Z,21.02
2023-02-20T23:23:07.199Z,25.05
2023-02-20T23:26:11.461Z,22.10
2023-02-20T23:29:15.180Z,27.80
2023-02-20T23:32:19.321Z,29.20
2023-02-20T23:35:23.663Z,24.05
2023-02-20T23:38:27.464Z,26.17
2023-02-20T23:41:31.267Z,25.60
2023-02-20T23:44:35.332Z,24.85
2023-02-20T23:47:39.439Z,19.07
2023-02-20T23:50:43.173Z,23.98
2023-02-20T23:53:47.149Z,27.98
2023-02-20T23:56:51.002Z,26.48
2023-02-20T23:59:55.001Z,28.70
